<?xml version="1.0" encoding="UTF-8" standalone="no" ?>
<gpx xmlns="http://www.topografix.com/GPX/1/1" xmlns:xsi="http://www.w3.org/2001/XMLSchema-instance" xsi:schemaLocation="http://www.topografix.com/GPX/1/1 http://www.topografix.com/GPX/1/1/gpx.xsd" version="1.1" creator="VisuGPX - https://www.visugpx.com">
  <metadata>
    <name>Annecy jour 1 - Mont Ouzon</name>
    <desc><![CDATA[Séjours Pentecôte 2015 - Club Vosgien Wintzenheim]]></desc>
  </metadata>
  <trk>
    <name><![CDATA[Annecy jour 1 - Mont Ouzon_1]]></name>
    <trkseg>
      <trkpt lat="46.28371" lon="6.64468">
        <ele>1240.106445</ele>
        <time>2015-05-23T09:58:11Z</time>
      </trkpt>
      <trkpt lat="46.28372" lon="6.64473">
        <ele>1236.723755</ele>
        <time>2015-05-23T09:58:17Z</time>
      </trkpt>
      <trkpt lat="46.28373" lon="6.64472">
        <ele>1236.805054</ele>
        <time>2015-05-23T09:58:24Z</time>
      </trkpt>
      <trkpt lat="46.28376" lon="6.64495">
        <ele>1236.062378</ele>
        <time>2015-05-23T09:58:50Z</time>
      </trkpt>
      <trkpt lat="46.2838" lon="6.64493">
        <ele>1238.103516</ele>
        <time>2015-05-23T09:59:44Z</time>
      </trkpt>
      <trkpt lat="46.28379" lon="6.64489">
        <ele>1239.921387</ele>
        <time>2015-05-23T10:00:00Z</time>
      </trkpt>
      <trkpt lat="46.28378" lon="6.64491">
        <ele>1242.306641</ele>
        <time>2015-05-23T10:00:55Z</time>
      </trkpt>
      <trkpt lat="46.28381" lon="6.64488">
        <ele>1241.71582</ele>
        <time>2015-05-23T10:01:03Z</time>
      </trkpt>
      <trkpt lat="46.28384" lon="6.64488">
        <ele>1239.82251</ele>
        <time>2015-05-23T10:01:07Z</time>
      </trkpt>
      <trkpt lat="46.28379" lon="6.64493">
        <ele>1239.792236</ele>
        <time>2015-05-23T10:01:23Z</time>
      </trkpt>
      <trkpt lat="46.28379" lon="6.64496">
        <ele>1238.899658</ele>
        <time>2015-05-23T10:01:47Z</time>
      </trkpt>
      <trkpt lat="46.28384" lon="6.6449">
        <ele>1236.481934</ele>
        <time>2015-05-23T10:02:01Z</time>
      </trkpt>
      <trkpt lat="46.28387" lon="6.64489">
        <ele>1236.143677</ele>
        <time>2015-05-23T10:02:05Z</time>
      </trkpt>
      <trkpt lat="46.28391" lon="6.64492">
        <ele>1235.155762</ele>
        <time>2015-05-23T10:02:09Z</time>
      </trkpt>
      <trkpt lat="46.28394" lon="6.64497">
        <ele>1233.294678</ele>
        <time>2015-05-23T10:02:17Z</time>
      </trkpt>
      <trkpt lat="46.28403" lon="6.64504">
        <ele>1232.810303</ele>
        <time>2015-05-23T10:02:25Z</time>
      </trkpt>
      <trkpt lat="46.28415" lon="6.64506">
        <ele>1232.935059</ele>
        <time>2015-05-23T10:02:37Z</time>
      </trkpt>
      <trkpt lat="46.28427" lon="6.645">
        <ele>1233.203857</ele>
        <time>2015-05-23T10:02:49Z</time>
      </trkpt>
      <trkpt lat="46.2843" lon="6.64496">
        <ele>1235.376709</ele>
        <time>2015-05-23T10:02:57Z</time>
      </trkpt>
      <trkpt lat="46.28434" lon="6.64494">
        <ele>1237.841797</ele>
        <time>2015-05-23T10:03:05Z</time>
      </trkpt>
      <trkpt lat="46.28434" lon="6.64488">
        <ele>1241.690186</ele>
        <time>2015-05-23T10:03:21Z</time>
      </trkpt>
      <trkpt lat="46.28436" lon="6.6449">
        <ele>1239.213013</ele>
        <time>2015-05-23T10:03:46Z</time>
      </trkpt>
      <trkpt lat="46.2844" lon="6.64487">
        <ele>1241.951782</ele>
        <time>2015-05-23T10:03:54Z</time>
      </trkpt>
      <trkpt lat="46.28439" lon="6.64479">
        <ele>1245.242798</ele>
        <time>2015-05-23T10:04:06Z</time>
      </trkpt>
      <trkpt lat="46.28445" lon="6.64481">
        <ele>1247.481201</ele>
        <time>2015-05-23T10:04:14Z</time>
      </trkpt>
      <trkpt lat="46.28449" lon="6.64472">
        <ele>1252.886353</ele>
        <time>2015-05-23T10:04:27Z</time>
      </trkpt>
      <trkpt lat="46.28452" lon="6.64474">
        <ele>1253.009644</ele>
        <time>2015-05-23T10:04:31Z</time>
      </trkpt>
      <trkpt lat="46.28455" lon="6.64471">
        <ele>1254.939331</ele>
        <time>2015-05-23T10:04:35Z</time>
      </trkpt>
      <trkpt lat="46.28461" lon="6.64472">
        <ele>1258.499268</ele>
        <time>2015-05-23T10:04:44Z</time>
      </trkpt>
      <trkpt lat="46.28461" lon="6.64474">
        <ele>1257.803833</ele>
        <time>2015-05-23T10:04:48Z</time>
      </trkpt>
      <trkpt lat="46.28469" lon="6.64477">
        <ele>1256.180542</ele>
        <time>2015-05-23T10:05:00Z</time>
      </trkpt>
      <trkpt lat="46.28475" lon="6.64489">
        <ele>1256.417603</ele>
        <time>2015-05-23T10:05:08Z</time>
      </trkpt>
      <trkpt lat="46.2848" lon="6.64513">
        <ele>1252.337402</ele>
        <time>2015-05-23T10:05:24Z</time>
      </trkpt>
      <trkpt lat="46.28487" lon="6.64537">
        <ele>1249.921265</ele>
        <time>2015-05-23T10:05:40Z</time>
      </trkpt>
      <trkpt lat="46.28502" lon="6.64558">
        <ele>1247.963379</ele>
        <time>2015-05-23T10:05:56Z</time>
      </trkpt>
      <trkpt lat="46.28528" lon="6.64583">
        <ele>1248.187378</ele>
        <time>2015-05-23T10:06:28Z</time>
      </trkpt>
      <trkpt lat="46.28536" lon="6.64586">
        <ele>1248.239014</ele>
        <time>2015-05-23T10:06:40Z</time>
      </trkpt>
      <trkpt lat="46.28548" lon="6.64613">
        <ele>1247.702148</ele>
        <time>2015-05-23T10:07:04Z</time>
      </trkpt>
      <trkpt lat="46.2855" lon="6.64614">
        <ele>1250.652222</ele>
        <time>2015-05-23T10:07:08Z</time>
      </trkpt>
      <trkpt lat="46.28553" lon="6.64608">
        <ele>1257.849976</ele>
        <time>2015-05-23T10:07:16Z</time>
      </trkpt>
      <trkpt lat="46.28551" lon="6.64572">
        <ele>1267.748047</ele>
        <time>2015-05-23T10:07:48Z</time>
      </trkpt>
      <trkpt lat="46.28545" lon="6.64525">
        <ele>1274.020386</ele>
        <time>2015-05-23T10:08:28Z</time>
      </trkpt>
      <trkpt lat="46.28543" lon="6.64515">
        <ele>1273.876709</ele>
        <time>2015-05-23T10:08:36Z</time>
      </trkpt>
      <trkpt lat="46.28544" lon="6.64486">
        <ele>1279.852661</ele>
        <time>2015-05-23T10:09:00Z</time>
      </trkpt>
      <trkpt lat="46.28543" lon="6.64467">
        <ele>1280.272461</ele>
        <time>2015-05-23T10:09:16Z</time>
      </trkpt>
      <trkpt lat="46.28544" lon="6.64458">
        <ele>1281.272705</ele>
        <time>2015-05-23T10:09:24Z</time>
      </trkpt>
      <trkpt lat="46.28555" lon="6.64459">
        <ele>1282.453857</ele>
        <time>2015-05-23T10:09:32Z</time>
      </trkpt>
      <trkpt lat="46.28554" lon="6.64458">
        <ele>1283.523682</ele>
        <time>2015-05-23T10:09:51Z</time>
      </trkpt>
      <trkpt lat="46.28554" lon="6.64461">
        <ele>1284.720825</ele>
        <time>2015-05-23T10:09:57Z</time>
      </trkpt>
      <trkpt lat="46.28548" lon="6.64466">
        <ele>1282.897827</ele>
        <time>2015-05-23T10:10:34Z</time>
      </trkpt>
      <trkpt lat="46.28553" lon="6.64473">
        <ele>1284.349854</ele>
        <time>2015-05-23T10:10:42Z</time>
      </trkpt>
      <trkpt lat="46.28567" lon="6.6448">
        <ele>1288.433838</ele>
        <time>2015-05-23T10:10:58Z</time>
      </trkpt>
      <trkpt lat="46.28577" lon="6.64494">
        <ele>1288.803101</ele>
        <time>2015-05-23T10:11:14Z</time>
      </trkpt>
      <trkpt lat="46.28586" lon="6.64501">
        <ele>1292.37085</ele>
        <time>2015-05-23T10:11:30Z</time>
      </trkpt>
      <trkpt lat="46.28593" lon="6.6451">
        <ele>1294.586792</ele>
        <time>2015-05-23T10:11:46Z</time>
      </trkpt>
      <trkpt lat="46.28605" lon="6.64513">
        <ele>1298.390259</ele>
        <time>2015-05-23T10:11:54Z</time>
      </trkpt>
      <trkpt lat="46.28611" lon="6.64516">
        <ele>1299.70813</ele>
        <time>2015-05-23T10:12:02Z</time>
      </trkpt>
      <trkpt lat="46.28607" lon="6.64528">
        <ele>1304.790283</ele>
        <time>2015-05-23T10:12:10Z</time>
      </trkpt>
      <trkpt lat="46.28631" lon="6.64547">
        <ele>1300.728516</ele>
        <time>2015-05-23T10:13:09Z</time>
      </trkpt>
      <trkpt lat="46.28636" lon="6.64553">
        <ele>1300.933105</ele>
        <time>2015-05-23T10:13:13Z</time>
      </trkpt>
      <trkpt lat="46.28638" lon="6.6456">
        <ele>1306.003174</ele>
        <time>2015-05-23T10:13:17Z</time>
      </trkpt>
      <trkpt lat="46.28655" lon="6.64577">
        <ele>1318.754517</ele>
        <time>2015-05-23T10:13:33Z</time>
      </trkpt>
      <trkpt lat="46.28663" lon="6.64588">
        <ele>1322.563477</ele>
        <time>2015-05-23T10:13:49Z</time>
      </trkpt>
      <trkpt lat="46.2867" lon="6.64603">
        <ele>1326.085815</ele>
        <time>2015-05-23T10:14:17Z</time>
      </trkpt>
      <trkpt lat="46.2867" lon="6.64609">
        <ele>1325.503784</ele>
        <time>2015-05-23T10:14:33Z</time>
      </trkpt>
      <trkpt lat="46.28679" lon="6.64622">
        <ele>1321.820068</ele>
        <time>2015-05-23T10:15:05Z</time>
      </trkpt>
      <trkpt lat="46.28693" lon="6.64637">
        <ele>1319.369751</ele>
        <time>2015-05-23T10:15:21Z</time>
      </trkpt>
      <trkpt lat="46.28714" lon="6.6467">
        <ele>1336.300903</ele>
        <time>2015-05-23T10:15:45Z</time>
      </trkpt>
      <trkpt lat="46.28722" lon="6.64676">
        <ele>1340.944336</ele>
        <time>2015-05-23T10:15:53Z</time>
      </trkpt>
      <trkpt lat="46.28728" lon="6.64686">
        <ele>1347.997192</ele>
        <time>2015-05-23T10:16:01Z</time>
      </trkpt>
      <trkpt lat="46.28736" lon="6.64691">
        <ele>1353.784424</ele>
        <time>2015-05-23T10:16:09Z</time>
      </trkpt>
      <trkpt lat="46.28742" lon="6.64699">
        <ele>1354.0448</ele>
        <time>2015-05-23T10:16:17Z</time>
      </trkpt>
      <trkpt lat="46.28748" lon="6.64704">
        <ele>1352.629272</ele>
        <time>2015-05-23T10:16:25Z</time>
      </trkpt>
      <trkpt lat="46.28756" lon="6.64719">
        <ele>1355.070312</ele>
        <time>2015-05-23T10:16:45Z</time>
      </trkpt>
      <trkpt lat="46.28786" lon="6.64731">
        <ele>1361.221924</ele>
        <time>2015-05-23T10:17:17Z</time>
      </trkpt>
      <trkpt lat="46.28794" lon="6.64736">
        <ele>1363.803833</ele>
        <time>2015-05-23T10:17:29Z</time>
      </trkpt>
      <trkpt lat="46.28815" lon="6.64737">
        <ele>1368.808105</ele>
        <time>2015-05-23T10:17:53Z</time>
      </trkpt>
      <trkpt lat="46.28824" lon="6.64746">
        <ele>1373.150269</ele>
        <time>2015-05-23T10:18:05Z</time>
      </trkpt>
      <trkpt lat="46.28829" lon="6.64742">
        <ele>1374.046753</ele>
        <time>2015-05-23T10:18:13Z</time>
      </trkpt>
      <trkpt lat="46.28819" lon="6.64738">
        <ele>1375.986572</ele>
        <time>2015-05-23T10:21:04Z</time>
      </trkpt>
      <trkpt lat="46.28819" lon="6.6475">
        <ele>1374.906982</ele>
        <time>2015-05-23T10:21:38Z</time>
      </trkpt>
      <trkpt lat="46.28821" lon="6.6475">
        <ele>1374.337402</ele>
        <time>2015-05-23T10:21:42Z</time>
      </trkpt>
      <trkpt lat="46.28824" lon="6.64736">
        <ele>1374.76416</ele>
        <time>2015-05-23T10:21:50Z</time>
      </trkpt>
      <trkpt lat="46.28818" lon="6.64727">
        <ele>1381.673584</ele>
        <time>2015-05-23T10:22:34Z</time>
      </trkpt>
      <trkpt lat="46.28815" lon="6.64729">
        <ele>1386.038086</ele>
        <time>2015-05-23T10:22:42Z</time>
      </trkpt>
      <trkpt lat="46.28811" lon="6.64729">
        <ele>1381.69458</ele>
        <time>2015-05-23T10:22:46Z</time>
      </trkpt>
      <trkpt lat="46.28805" lon="6.6472">
        <ele>1378.221802</ele>
        <time>2015-05-23T10:22:54Z</time>
      </trkpt>
      <trkpt lat="46.28802" lon="6.64697">
        <ele>1373.15979</ele>
        <time>2015-05-23T10:23:06Z</time>
      </trkpt>
      <trkpt lat="46.28799" lon="6.64693">
        <ele>1370.628906</ele>
        <time>2015-05-23T10:23:10Z</time>
      </trkpt>
      <trkpt lat="46.28799" lon="6.6468">
        <ele>1379.612427</ele>
        <time>2015-05-23T10:23:18Z</time>
      </trkpt>
      <trkpt lat="46.28793" lon="6.64666">
        <ele>1381.919189</ele>
        <time>2015-05-23T10:23:34Z</time>
      </trkpt>
      <trkpt lat="46.28794" lon="6.64661">
        <ele>1384.946045</ele>
        <time>2015-05-23T10:23:38Z</time>
      </trkpt>
      <trkpt lat="46.28792" lon="6.64659">
        <ele>1381.862915</ele>
        <time>2015-05-23T10:23:42Z</time>
      </trkpt>
      <trkpt lat="46.28797" lon="6.64651">
        <ele>1384.397827</ele>
        <time>2015-05-23T10:23:48Z</time>
      </trkpt>
      <trkpt lat="46.28794" lon="6.6465">
        <ele>1383.270508</ele>
        <time>2015-05-23T10:23:52Z</time>
      </trkpt>
      <trkpt lat="46.28793" lon="6.64642">
        <ele>1382.533936</ele>
        <time>2015-05-23T10:23:56Z</time>
      </trkpt>
      <trkpt lat="46.28785" lon="6.64628">
        <ele>1382.231079</ele>
        <time>2015-05-23T10:24:06Z</time>
      </trkpt>
      <trkpt lat="46.28788" lon="6.64621">
        <ele>1388.329468</ele>
        <time>2015-05-23T10:24:10Z</time>
      </trkpt>
      <trkpt lat="46.28791" lon="6.64617">
        <ele>1389.277832</ele>
        <time>2015-05-23T10:24:14Z</time>
      </trkpt>
      <trkpt lat="46.28796" lon="6.64619">
        <ele>1386.832886</ele>
        <time>2015-05-23T10:24:22Z</time>
      </trkpt>
      <trkpt lat="46.288" lon="6.64627">
        <ele>1386.734009</ele>
        <time>2015-05-23T10:24:30Z</time>
      </trkpt>
      <trkpt lat="46.28809" lon="6.64636">
        <ele>1389.47937</ele>
        <time>2015-05-23T10:24:38Z</time>
      </trkpt>
      <trkpt lat="46.28816" lon="6.64647">
        <ele>1389.725098</ele>
        <time>2015-05-23T10:24:50Z</time>
      </trkpt>
      <trkpt lat="46.28841" lon="6.64663">
        <ele>1392.936768</ele>
        <time>2015-05-23T10:25:22Z</time>
      </trkpt>
      <trkpt lat="46.28864" lon="6.64664">
        <ele>1397.19873</ele>
        <time>2015-05-23T10:25:38Z</time>
      </trkpt>
      <trkpt lat="46.28873" lon="6.6467">
        <ele>1399.321899</ele>
        <time>2015-05-23T10:25:46Z</time>
      </trkpt>
      <trkpt lat="46.28886" lon="6.64685">
        <ele>1398.736206</ele>
        <time>2015-05-23T10:26:02Z</time>
      </trkpt>
      <trkpt lat="46.28912" lon="6.64692">
        <ele>1404.408447</ele>
        <time>2015-05-23T10:26:34Z</time>
      </trkpt>
      <trkpt lat="46.28917" lon="6.64708">
        <ele>1406.394653</ele>
        <time>2015-05-23T10:26:50Z</time>
      </trkpt>
      <trkpt lat="46.2892" lon="6.64736">
        <ele>1408.790527</ele>
        <time>2015-05-23T10:27:14Z</time>
      </trkpt>
      <trkpt lat="46.28932" lon="6.64768">
        <ele>1415.52063</ele>
        <time>2015-05-23T10:27:46Z</time>
      </trkpt>
      <trkpt lat="46.28936" lon="6.64767">
        <ele>1416.730835</ele>
        <time>2015-05-23T10:27:50Z</time>
      </trkpt>
      <trkpt lat="46.2894" lon="6.64751">
        <ele>1424.276489</ele>
        <time>2015-05-23T10:28:55Z</time>
      </trkpt>
      <trkpt lat="46.28949" lon="6.64736">
        <ele>1425.289429</ele>
        <time>2015-05-23T10:29:20Z</time>
      </trkpt>
      <trkpt lat="46.28956" lon="6.64718">
        <ele>1427.334351</ele>
        <time>2015-05-23T10:29:36Z</time>
      </trkpt>
      <trkpt lat="46.28965" lon="6.64706">
        <ele>1427.696045</ele>
        <time>2015-05-23T10:29:52Z</time>
      </trkpt>
      <trkpt lat="46.28991" lon="6.64691">
        <ele>1434.799072</ele>
        <time>2015-05-23T10:30:24Z</time>
      </trkpt>
      <trkpt lat="46.29014" lon="6.64687">
        <ele>1439.980957</ele>
        <time>2015-05-23T10:30:56Z</time>
      </trkpt>
      <trkpt lat="46.29033" lon="6.6467">
        <ele>1447.963135</ele>
        <time>2015-05-23T10:31:28Z</time>
      </trkpt>
      <trkpt lat="46.29043" lon="6.64653">
        <ele>1454.14502</ele>
        <time>2015-05-23T10:31:52Z</time>
      </trkpt>
      <trkpt lat="46.29048" lon="6.64649">
        <ele>1454.994751</ele>
        <time>2015-05-23T10:32:00Z</time>
      </trkpt>
      <trkpt lat="46.29074" lon="6.64642">
        <ele>1460.530151</ele>
        <time>2015-05-23T10:32:32Z</time>
      </trkpt>
      <trkpt lat="46.29113" lon="6.6461">
        <ele>1470.882935</ele>
        <time>2015-05-23T10:33:36Z</time>
      </trkpt>
      <trkpt lat="46.29124" lon="6.64606">
        <ele>1474.382812</ele>
        <time>2015-05-23T10:33:52Z</time>
      </trkpt>
      <trkpt lat="46.29133" lon="6.646">
        <ele>1474.647583</ele>
        <time>2015-05-23T10:34:08Z</time>
      </trkpt>
      <trkpt lat="46.29136" lon="6.64595">
        <ele>1481.380981</ele>
        <time>2015-05-23T10:34:22Z</time>
      </trkpt>
      <trkpt lat="46.29149" lon="6.6459">
        <ele>1482.059692</ele>
        <time>2015-05-23T10:34:38Z</time>
      </trkpt>
      <trkpt lat="46.29158" lon="6.64583">
        <ele>1488.566406</ele>
        <time>2015-05-23T10:34:54Z</time>
      </trkpt>
      <trkpt lat="46.2916" lon="6.64578">
        <ele>1489.390381</ele>
        <time>2015-05-23T10:35:02Z</time>
      </trkpt>
      <trkpt lat="46.29161" lon="6.64557">
        <ele>1494.290894</ele>
        <time>2015-05-23T10:35:18Z</time>
      </trkpt>
      <trkpt lat="46.29167" lon="6.64522">
        <ele>1497.686401</ele>
        <time>2015-05-23T10:35:50Z</time>
      </trkpt>
      <trkpt lat="46.29169" lon="6.64505">
        <ele>1501.695557</ele>
        <time>2015-05-23T10:36:06Z</time>
      </trkpt>
      <trkpt lat="46.29168" lon="6.64497">
        <ele>1502.483398</ele>
        <time>2015-05-23T10:36:14Z</time>
      </trkpt>
      <trkpt lat="46.29177" lon="6.6448">
        <ele>1501.886719</ele>
        <time>2015-05-23T10:36:30Z</time>
      </trkpt>
      <trkpt lat="46.29191" lon="6.64468">
        <ele>1503.41748</ele>
        <time>2015-05-23T10:36:46Z</time>
      </trkpt>
      <trkpt lat="46.29203" lon="6.64462">
        <ele>1506.621094</ele>
        <time>2015-05-23T10:37:02Z</time>
      </trkpt>
      <trkpt lat="46.2921" lon="6.64461">
        <ele>1508.541992</ele>
        <time>2015-05-23T10:37:51Z</time>
      </trkpt>
      <trkpt lat="46.29208" lon="6.64456">
        <ele>1508.546387</ele>
        <time>2015-05-23T10:38:09Z</time>
      </trkpt>
      <trkpt lat="46.29196" lon="6.64449">
        <ele>1508.580557</ele>
        <time>2015-05-23T10:38:32Z</time>
      </trkpt>
      <trkpt lat="46.29193" lon="6.64449">
        <ele>1508.38208</ele>
        <time>2015-05-23T10:40:02Z</time>
      </trkpt>
      <trkpt lat="46.29195" lon="6.64448">
        <ele>1507.439453</ele>
        <time>2015-05-23T10:40:18Z</time>
      </trkpt>
      <trkpt lat="46.292" lon="6.64455">
        <ele>1504.733887</ele>
        <time>2015-05-23T10:40:26Z</time>
      </trkpt>
      <trkpt lat="46.292" lon="6.64459">
        <ele>1504.497803</ele>
        <time>2015-05-23T10:40:28Z</time>
      </trkpt>
      <trkpt lat="46.29183" lon="6.64472">
        <ele>1505.261238</ele>
        <time>2015-05-23T10:42:08Z</time>
      </trkpt>
      <trkpt lat="46.292" lon="6.6446">
        <ele>1505.26467</ele>
        <time>2015-05-23T10:42:24Z</time>
      </trkpt>
      <trkpt lat="46.29208" lon="6.64459">
        <ele>1506.504395</ele>
        <time>2015-05-23T10:42:32Z</time>
      </trkpt>
      <trkpt lat="46.2921" lon="6.64464">
        <ele>1507.517822</ele>
        <time>2015-05-23T10:42:52Z</time>
      </trkpt>
      <trkpt lat="46.29239" lon="6.64471">
        <ele>1509.112305</ele>
        <time>2015-05-23T10:43:24Z</time>
      </trkpt>
      <trkpt lat="46.29265" lon="6.64481">
        <ele>1515.940186</ele>
        <time>2015-05-23T10:43:56Z</time>
      </trkpt>
      <trkpt lat="46.29286" lon="6.64495">
        <ele>1523.087402</ele>
        <time>2015-05-23T10:44:28Z</time>
      </trkpt>
      <trkpt lat="46.29306" lon="6.64514">
        <ele>1529.892334</ele>
        <time>2015-05-23T10:45:00Z</time>
      </trkpt>
      <trkpt lat="46.29316" lon="6.6452">
        <ele>1532.338867</ele>
        <time>2015-05-23T10:45:16Z</time>
      </trkpt>
      <trkpt lat="46.29337" lon="6.64528">
        <ele>1535.975586</ele>
        <time>2015-05-23T10:45:48Z</time>
      </trkpt>
      <trkpt lat="46.29359" lon="6.64543">
        <ele>1541.430176</ele>
        <time>2015-05-23T10:46:20Z</time>
      </trkpt>
      <trkpt lat="46.29378" lon="6.64565">
        <ele>1547.997559</ele>
        <time>2015-05-23T10:46:52Z</time>
      </trkpt>
      <trkpt lat="46.29393" lon="6.64585">
        <ele>1554.695068</ele>
        <time>2015-05-23T10:47:24Z</time>
      </trkpt>
      <trkpt lat="46.29412" lon="6.64616">
        <ele>1558.284668</ele>
        <time>2015-05-23T10:48:04Z</time>
      </trkpt>
      <trkpt lat="46.29415" lon="6.64623">
        <ele>1559.952637</ele>
        <time>2015-05-23T10:48:12Z</time>
      </trkpt>
      <trkpt lat="46.29433" lon="6.64645">
        <ele>1565.98291</ele>
        <time>2015-05-23T10:48:44Z</time>
      </trkpt>
      <trkpt lat="46.29442" lon="6.6466">
        <ele>1568.34668</ele>
        <time>2015-05-23T10:49:00Z</time>
      </trkpt>
      <trkpt lat="46.29455" lon="6.64687">
        <ele>1572.249023</ele>
        <time>2015-05-23T10:49:32Z</time>
      </trkpt>
      <trkpt lat="46.29469" lon="6.6471">
        <ele>1582.129883</ele>
        <time>2015-05-23T10:50:04Z</time>
      </trkpt>
      <trkpt lat="46.29484" lon="6.64727">
        <ele>1583.358643</ele>
        <time>2015-05-23T10:50:28Z</time>
      </trkpt>
      <trkpt lat="46.29496" lon="6.64747">
        <ele>1595.243408</ele>
        <time>2015-05-23T10:51:00Z</time>
      </trkpt>
      <trkpt lat="46.29507" lon="6.64758">
        <ele>1598.165039</ele>
        <time>2015-05-23T10:51:16Z</time>
      </trkpt>
      <trkpt lat="46.29594" lon="6.64876">
        <ele>1624.734131</ele>
        <time>2015-05-23T10:53:56Z</time>
      </trkpt>
      <trkpt lat="46.29619" lon="6.64903">
        <ele>1628.689453</ele>
        <time>2015-05-23T10:54:28Z</time>
      </trkpt>
      <trkpt lat="46.29633" lon="6.64909">
        <ele>1628.030762</ele>
        <time>2015-05-23T10:54:44Z</time>
      </trkpt>
      <trkpt lat="46.29649" lon="6.64912">
        <ele>1627.92627</ele>
        <time>2015-05-23T10:55:00Z</time>
      </trkpt>
      <trkpt lat="46.29657" lon="6.64908">
        <ele>1629.272461</ele>
        <time>2015-05-23T10:55:08Z</time>
      </trkpt>
      <trkpt lat="46.29672" lon="6.64895">
        <ele>1628.231445</ele>
        <time>2015-05-23T10:55:24Z</time>
      </trkpt>
      <trkpt lat="46.29679" lon="6.64885">
        <ele>1629.233887</ele>
        <time>2015-05-23T10:55:32Z</time>
      </trkpt>
      <trkpt lat="46.29684" lon="6.64873">
        <ele>1629.050781</ele>
        <time>2015-05-23T10:55:40Z</time>
      </trkpt>
      <trkpt lat="46.29707" lon="6.64836">
        <ele>1639.634766</ele>
        <time>2015-05-23T10:56:12Z</time>
      </trkpt>
      <trkpt lat="46.29717" lon="6.64815">
        <ele>1640.731445</ele>
        <time>2015-05-23T10:56:36Z</time>
      </trkpt>
      <trkpt lat="46.29729" lon="6.64767">
        <ele>1644.130371</ele>
        <time>2015-05-23T10:57:16Z</time>
      </trkpt>
      <trkpt lat="46.29751" lon="6.64744">
        <ele>1648.380859</ele>
        <time>2015-05-23T10:57:48Z</time>
      </trkpt>
      <trkpt lat="46.29749" lon="6.6474">
        <ele>1646.99707</ele>
        <time>2015-05-23T10:57:52Z</time>
      </trkpt>
      <trkpt lat="46.29736" lon="6.64737">
        <ele>1646.737305</ele>
        <time>2015-05-23T10:58:04Z</time>
      </trkpt>
      <trkpt lat="46.2973" lon="6.64729">
        <ele>1647.952881</ele>
        <time>2015-05-23T10:58:12Z</time>
      </trkpt>
      <trkpt lat="46.29729" lon="6.64723">
        <ele>1645.223145</ele>
        <time>2015-05-23T10:58:47Z</time>
      </trkpt>
      <trkpt lat="46.29731" lon="6.64719">
        <ele>1641.624512</ele>
        <time>2015-05-23T10:59:48Z</time>
      </trkpt>
      <trkpt lat="46.29724" lon="6.64719">
        <ele>1640.554688</ele>
        <time>2015-05-23T11:01:35Z</time>
      </trkpt>
      <trkpt lat="46.29726" lon="6.64717">
        <ele>1640.593994</ele>
        <time>2015-05-23T11:01:51Z</time>
      </trkpt>
      <trkpt lat="46.29738" lon="6.64725">
        <ele>1643.945801</ele>
        <time>2015-05-23T11:02:23Z</time>
      </trkpt>
      <trkpt lat="46.29739" lon="6.64721">
        <ele>1644.687988</ele>
        <time>2015-05-23T11:02:27Z</time>
      </trkpt>
      <trkpt lat="46.29742" lon="6.64723">
        <ele>1646.96582</ele>
        <time>2015-05-23T11:02:37Z</time>
      </trkpt>
      <trkpt lat="46.29738" lon="6.64726">
        <ele>1644.365723</ele>
        <time>2015-05-23T11:02:41Z</time>
      </trkpt>
      <trkpt lat="46.29728" lon="6.64722">
        <ele>1646.060547</ele>
        <time>2015-05-23T11:02:49Z</time>
      </trkpt>
      <trkpt lat="46.29727" lon="6.64716">
        <ele>1645.464111</ele>
        <time>2015-05-23T11:02:53Z</time>
      </trkpt>
      <trkpt lat="46.29729" lon="6.64714">
        <ele>1647.058877</ele>
        <time>2015-05-23T11:03:38Z</time>
      </trkpt>
      <trkpt lat="46.29738" lon="6.64712">
        <ele>1643.034912</ele>
        <time>2015-05-23T11:03:59Z</time>
      </trkpt>
      <trkpt lat="46.29738" lon="6.64705">
        <ele>1642.913086</ele>
        <time>2015-05-23T11:04:07Z</time>
      </trkpt>
      <trkpt lat="46.29726" lon="6.64688">
        <ele>1646.849121</ele>
        <time>2015-05-23T11:04:23Z</time>
      </trkpt>
      <trkpt lat="46.29724" lon="6.64675">
        <ele>1644.735352</ele>
        <time>2015-05-23T11:04:35Z</time>
      </trkpt>
      <trkpt lat="46.29727" lon="6.64674">
        <ele>1642.090332</ele>
        <time>2015-05-23T11:04:39Z</time>
      </trkpt>
      <trkpt lat="46.29721" lon="6.64665">
        <ele>1650.607178</ele>
        <time>2015-05-23T11:07:01Z</time>
      </trkpt>
      <trkpt lat="46.29722" lon="6.64657">
        <ele>1657.4104</ele>
        <time>2015-05-23T11:08:33Z</time>
      </trkpt>
      <trkpt lat="46.2972" lon="6.64655">
        <ele>1656.773438</ele>
        <time>2015-05-23T11:13:13Z</time>
      </trkpt>
      <trkpt lat="46.29722" lon="6.64653">
        <ele>1657.635046</ele>
        <time>2015-05-23T11:23:08Z</time>
      </trkpt>
      <trkpt lat="46.29722" lon="6.64655">
        <ele>1659.131836</ele>
        <time>2015-05-23T11:31:17Z</time>
      </trkpt>
      <trkpt lat="46.29723" lon="6.64654">
        <ele>1659.606445</ele>
        <time>2015-05-23T11:32:35Z</time>
      </trkpt>
      <trkpt lat="46.29721" lon="6.64647">
        <ele>1656.647217</ele>
        <time>2015-05-23T11:33:31Z</time>
      </trkpt>
      <trkpt lat="46.29713" lon="6.64635">
        <ele>1660.908936</ele>
        <time>2015-05-23T11:33:39Z</time>
      </trkpt>
      <trkpt lat="46.29707" lon="6.64631">
        <ele>1662.381592</ele>
        <time>2015-05-23T11:33:47Z</time>
      </trkpt>
      <trkpt lat="46.29708" lon="6.64622">
        <ele>1662.574707</ele>
        <time>2015-05-23T11:35:20Z</time>
      </trkpt>
      <trkpt lat="46.29712" lon="6.6463">
        <ele>1660.762939</ele>
        <time>2015-05-23T11:35:28Z</time>
      </trkpt>
      <trkpt lat="46.29716" lon="6.64646">
        <ele>1662.709961</ele>
        <time>2015-05-23T11:35:36Z</time>
      </trkpt>
      <trkpt lat="46.29741" lon="6.6469">
        <ele>1655.003906</ele>
        <time>2015-05-23T11:35:56Z</time>
      </trkpt>
      <trkpt lat="46.29743" lon="6.64699">
        <ele>1654.576172</ele>
        <time>2015-05-23T11:36:00Z</time>
      </trkpt>
      <trkpt lat="46.29742" lon="6.64705">
        <ele>1651.104004</ele>
        <time>2015-05-23T11:36:04Z</time>
      </trkpt>
      <trkpt lat="46.29728" lon="6.6471">
        <ele>1642.827148</ele>
        <time>2015-05-23T11:36:12Z</time>
      </trkpt>
      <trkpt lat="46.2973" lon="6.64715">
        <ele>1640.786621</ele>
        <time>2015-05-23T11:36:16Z</time>
      </trkpt>
      <trkpt lat="46.29727" lon="6.64719">
        <ele>1641.732987</ele>
        <time>2015-05-23T11:36:20Z</time>
      </trkpt>
      <trkpt lat="46.29728" lon="6.64715">
        <ele>1641.808954</ele>
        <time>2015-05-23T11:37:07Z</time>
      </trkpt>
      <trkpt lat="46.29728" lon="6.6472">
        <ele>1641.346564</ele>
        <time>2015-05-23T11:38:11Z</time>
      </trkpt>
      <trkpt lat="46.29732" lon="6.64708">
        <ele>1634.960938</ele>
        <time>2015-05-23T11:38:50Z</time>
      </trkpt>
      <trkpt lat="46.29726" lon="6.64685">
        <ele>1640.359619</ele>
        <time>2015-05-23T11:39:06Z</time>
      </trkpt>
      <trkpt lat="46.29721" lon="6.64672">
        <ele>1647.883789</ele>
        <time>2015-05-23T11:39:22Z</time>
      </trkpt>
      <trkpt lat="46.29722" lon="6.64667">
        <ele>1648.330078</ele>
        <time>2015-05-23T11:39:26Z</time>
      </trkpt>
      <trkpt lat="46.29715" lon="6.64662">
        <ele>1650.589355</ele>
        <time>2015-05-23T11:39:58Z</time>
      </trkpt>
      <trkpt lat="46.29718" lon="6.64657">
        <ele>1651.908203</ele>
        <time>2015-05-23T11:40:31Z</time>
      </trkpt>
      <trkpt lat="46.29719" lon="6.64652">
        <ele>1659.313477</ele>
        <time>2015-05-23T11:41:04Z</time>
      </trkpt>
      <trkpt lat="46.29714" lon="6.64643">
        <ele>1658.831055</ele>
        <time>2015-05-23T11:41:37Z</time>
      </trkpt>
      <trkpt lat="46.29714" lon="6.64635">
        <ele>1663.309522</ele>
        <time>2015-05-23T11:42:03Z</time>
      </trkpt>
      <trkpt lat="46.29717" lon="6.6463">
        <ele>1664.22356</ele>
        <time>2015-05-23T11:42:09Z</time>
      </trkpt>
      <trkpt lat="46.29716" lon="6.64625">
        <ele>1664.91843</ele>
        <time>2015-05-23T11:42:13Z</time>
      </trkpt>
      <trkpt lat="46.29715" lon="6.64626">
        <ele>1663.263672</ele>
        <time>2015-05-23T11:42:36Z</time>
      </trkpt>
      <trkpt lat="46.2971" lon="6.64623">
        <ele>1664.390137</ele>
        <time>2015-05-23T11:44:45Z</time>
      </trkpt>
      <trkpt lat="46.29699" lon="6.6461">
        <ele>1667.074219</ele>
        <time>2015-05-23T11:45:30Z</time>
      </trkpt>
      <trkpt lat="46.29676" lon="6.64555">
        <ele>1672.796806</ele>
        <time>2015-05-23T11:46:35Z</time>
      </trkpt>
      <trkpt lat="46.29673" lon="6.64536">
        <ele>1675.498872</ele>
        <time>2015-05-23T11:46:51Z</time>
      </trkpt>
      <trkpt lat="46.29675" lon="6.64528">
        <ele>1677.743852</ele>
        <time>2015-05-23T11:46:59Z</time>
      </trkpt>
      <trkpt lat="46.29674" lon="6.64519">
        <ele>1678.871281</ele>
        <time>2015-05-23T11:47:07Z</time>
      </trkpt>
      <trkpt lat="46.2968" lon="6.64526">
        <ele>1680.367963</ele>
        <time>2015-05-23T11:47:15Z</time>
      </trkpt>
      <trkpt lat="46.29692" lon="6.64525">
        <ele>1681.929976</ele>
        <time>2015-05-23T11:47:25Z</time>
      </trkpt>
      <trkpt lat="46.29686" lon="6.64533">
        <ele>1681.876538</ele>
        <time>2015-05-23T11:47:29Z</time>
      </trkpt>
      <trkpt lat="46.29684" lon="6.64539">
        <ele>1682.360521</ele>
        <time>2015-05-23T11:47:33Z</time>
      </trkpt>
      <trkpt lat="46.29685" lon="6.64543">
        <ele>1682.649436</ele>
        <time>2015-05-23T11:47:37Z</time>
      </trkpt>
      <trkpt lat="46.29706" lon="6.64553">
        <ele>1686.74417</ele>
        <time>2015-05-23T11:47:57Z</time>
      </trkpt>
      <trkpt lat="46.29709" lon="6.64552">
        <ele>1687.200043</ele>
        <time>2015-05-23T11:47:59Z</time>
      </trkpt>
      <trkpt lat="46.29721" lon="6.64538">
        <ele>1688.747738</ele>
        <time>2015-05-23T11:48:07Z</time>
      </trkpt>
      <trkpt lat="46.29719" lon="6.6455">
        <ele>1690.052122</ele>
        <time>2015-05-23T11:48:19Z</time>
      </trkpt>
      <trkpt lat="46.29723" lon="6.64559">
        <ele>1691.029239</ele>
        <time>2015-05-23T11:48:28Z</time>
      </trkpt>
      <trkpt lat="46.29729" lon="6.6456">
        <ele>1692.780632</ele>
        <time>2015-05-23T11:48:36Z</time>
      </trkpt>
      <trkpt lat="46.29731" lon="6.64564">
        <ele>1693.683096</ele>
        <time>2015-05-23T11:48:40Z</time>
      </trkpt>
      <trkpt lat="46.29731" lon="6.64568">
        <ele>1693.792208</ele>
        <time>2015-05-23T11:48:44Z</time>
      </trkpt>
      <trkpt lat="46.29733" lon="6.6457">
        <ele>1690.563965</ele>
        <time>2015-05-23T11:48:48Z</time>
      </trkpt>
      <trkpt lat="46.29735" lon="6.64567">
        <ele>1695.285299</ele>
        <time>2015-05-23T11:48:52Z</time>
      </trkpt>
      <trkpt lat="46.29744" lon="6.64567">
        <ele>1689.907715</ele>
        <time>2015-05-23T11:49:08Z</time>
      </trkpt>
      <trkpt lat="46.2975" lon="6.6457">
        <ele>1693.218018</ele>
        <time>2015-05-23T11:49:16Z</time>
      </trkpt>
      <trkpt lat="46.29762" lon="6.6457">
        <ele>1693.929199</ele>
        <time>2015-05-23T11:49:32Z</time>
      </trkpt>
      <trkpt lat="46.29768" lon="6.64575">
        <ele>1694.712891</ele>
        <time>2015-05-23T11:49:44Z</time>
      </trkpt>
      <trkpt lat="46.29774" lon="6.64571">
        <ele>1699.02417</ele>
        <time>2015-05-23T11:50:00Z</time>
      </trkpt>
      <trkpt lat="46.29783" lon="6.6457">
        <ele>1699.328125</ele>
        <time>2015-05-23T11:50:16Z</time>
      </trkpt>
      <trkpt lat="46.29777" lon="6.64556">
        <ele>1704.001221</ele>
        <time>2015-05-23T11:50:32Z</time>
      </trkpt>
      <trkpt lat="46.29772" lon="6.64548">
        <ele>1713.003906</ele>
        <time>2015-05-23T11:50:48Z</time>
      </trkpt>
      <trkpt lat="46.29773" lon="6.64544">
        <ele>1715.530273</ele>
        <time>2015-05-23T11:50:56Z</time>
      </trkpt>
      <trkpt lat="46.29767" lon="6.64535">
        <ele>1718.260254</ele>
        <time>2015-05-23T11:51:24Z</time>
      </trkpt>
      <trkpt lat="46.29766" lon="6.64514">
        <ele>1719.712402</ele>
        <time>2015-05-23T11:51:56Z</time>
      </trkpt>
      <trkpt lat="46.29771" lon="6.64489">
        <ele>1728.883789</ele>
        <time>2015-05-23T11:52:28Z</time>
      </trkpt>
      <trkpt lat="46.29785" lon="6.64487">
        <ele>1732.549561</ele>
        <time>2015-05-23T11:53:11Z</time>
      </trkpt>
      <trkpt lat="46.29787" lon="6.64483">
        <ele>1732.638184</ele>
        <time>2015-05-23T11:53:19Z</time>
      </trkpt>
      <trkpt lat="46.29787" lon="6.64465">
        <ele>1739.691895</ele>
        <time>2015-05-23T11:53:43Z</time>
      </trkpt>
      <trkpt lat="46.29783" lon="6.64456">
        <ele>1742.57373</ele>
        <time>2015-05-23T11:53:51Z</time>
      </trkpt>
      <trkpt lat="46.29782" lon="6.64441">
        <ele>1746.218018</ele>
        <time>2015-05-23T11:54:07Z</time>
      </trkpt>
      <trkpt lat="46.29785" lon="6.64435">
        <ele>1749.14502</ele>
        <time>2015-05-23T11:54:19Z</time>
      </trkpt>
      <trkpt lat="46.29788" lon="6.64435">
        <ele>1749.329346</ele>
        <time>2015-05-23T11:54:23Z</time>
      </trkpt>
      <trkpt lat="46.29792" lon="6.6444">
        <ele>1747.786133</ele>
        <time>2015-05-23T11:54:31Z</time>
      </trkpt>
      <trkpt lat="46.29811" lon="6.64448">
        <ele>1753.135254</ele>
        <time>2015-05-23T11:55:03Z</time>
      </trkpt>
      <trkpt lat="46.29814" lon="6.64454">
        <ele>1755.642578</ele>
        <time>2015-05-23T11:55:11Z</time>
      </trkpt>
      <trkpt lat="46.29825" lon="6.64463">
        <ele>1757.931152</ele>
        <time>2015-05-23T11:55:43Z</time>
      </trkpt>
      <trkpt lat="46.2983" lon="6.64461">
        <ele>1759.769531</ele>
        <time>2015-05-23T11:55:51Z</time>
      </trkpt>
      <trkpt lat="46.29843" lon="6.64471">
        <ele>1760.815186</ele>
        <time>2015-05-23T11:56:11Z</time>
      </trkpt>
      <trkpt lat="46.29856" lon="6.64477">
        <ele>1765.098145</ele>
        <time>2015-05-23T11:56:35Z</time>
      </trkpt>
      <trkpt lat="46.29865" lon="6.64471">
        <ele>1768.446777</ele>
        <time>2015-05-23T11:56:51Z</time>
      </trkpt>
      <trkpt lat="46.29889" lon="6.64472">
        <ele>1777.312988</ele>
        <time>2015-05-23T11:57:39Z</time>
      </trkpt>
      <trkpt lat="46.29895" lon="6.64468">
        <ele>1783.48865</ele>
        <time>2015-05-23T11:57:47Z</time>
      </trkpt>
      <trkpt lat="46.29899" lon="6.64471">
        <ele>1785.897486</ele>
        <time>2015-05-23T11:58:05Z</time>
      </trkpt>
      <trkpt lat="46.29903" lon="6.64467">
        <ele>1788.994959</ele>
        <time>2015-05-23T11:58:17Z</time>
      </trkpt>
      <trkpt lat="46.29909" lon="6.6447">
        <ele>1792.976785</ele>
        <time>2015-05-23T11:58:34Z</time>
      </trkpt>
      <trkpt lat="46.29919" lon="6.64469">
        <ele>1790.046387</ele>
        <time>2015-05-23T11:59:08Z</time>
      </trkpt>
      <trkpt lat="46.29924" lon="6.64465">
        <ele>1798.96744</ele>
        <time>2015-05-23T11:59:16Z</time>
      </trkpt>
      <trkpt lat="46.29925" lon="6.64459">
        <ele>1794.884277</ele>
        <time>2015-05-23T11:59:32Z</time>
      </trkpt>
      <trkpt lat="46.29927" lon="6.64455">
        <ele>1795.089355</ele>
        <time>2015-05-23T11:59:48Z</time>
      </trkpt>
      <trkpt lat="46.29947" lon="6.64452">
        <ele>1807.796631</ele>
        <time>2015-05-23T12:00:52Z</time>
      </trkpt>
      <trkpt lat="46.29957" lon="6.64458">
        <ele>1811.739258</ele>
        <time>2015-05-23T12:01:24Z</time>
      </trkpt>
      <trkpt lat="46.29961" lon="6.64458">
        <ele>1812.339844</ele>
        <time>2015-05-23T12:01:32Z</time>
      </trkpt>
      <trkpt lat="46.29965" lon="6.64455">
        <ele>1811.819092</ele>
        <time>2015-05-23T12:01:56Z</time>
      </trkpt>
      <trkpt lat="46.29966" lon="6.64459">
        <ele>1821.556553</ele>
        <time>2015-05-23T12:04:30Z</time>
      </trkpt>
      <trkpt lat="46.29983" lon="6.64472">
        <ele>1828.960002</ele>
        <time>2015-05-23T12:05:04Z</time>
      </trkpt>
      <trkpt lat="46.29984" lon="6.64477">
        <ele>1832.314936</ele>
        <time>2015-05-23T12:05:26Z</time>
      </trkpt>
      <trkpt lat="46.2999" lon="6.64477">
        <ele>1835.335283</ele>
        <time>2015-05-23T12:05:42Z</time>
      </trkpt>
      <trkpt lat="46.29992" lon="6.64474">
        <ele>1838.374314</ele>
        <time>2015-05-23T12:05:59Z</time>
      </trkpt>
      <trkpt lat="46.29994" lon="6.64478">
        <ele>1841.867188</ele>
        <time>2015-05-23T12:06:29Z</time>
      </trkpt>
      <trkpt lat="46.29996" lon="6.64476">
        <ele>1843.804134</ele>
        <time>2015-05-23T12:07:06Z</time>
      </trkpt>
      <trkpt lat="46.30003" lon="6.64476">
        <ele>1845.897949</ele>
        <time>2015-05-23T12:08:51Z</time>
      </trkpt>
      <trkpt lat="46.30011" lon="6.64461">
        <ele>1852.143555</ele>
        <time>2015-05-23T12:09:45Z</time>
      </trkpt>
      <trkpt lat="46.3002" lon="6.64462">
        <ele>1864.324219</ele>
        <time>2015-05-23T12:10:51Z</time>
      </trkpt>
      <trkpt lat="46.3002" lon="6.64464">
        <ele>1864.77832</ele>
        <time>2015-05-23T12:11:28Z</time>
      </trkpt>
      <trkpt lat="46.30024" lon="6.6446">
        <ele>1866.92041</ele>
        <time>2015-05-23T12:12:26Z</time>
      </trkpt>
      <trkpt lat="46.30039" lon="6.64477">
        <ele>1875.304069</ele>
        <time>2015-05-23T12:14:41Z</time>
      </trkpt>
      <trkpt lat="46.30038" lon="6.64467">
        <ele>1874.097039</ele>
        <time>2015-05-23T12:15:11Z</time>
      </trkpt>
      <trkpt lat="46.30032" lon="6.64469">
        <ele>1883.180664</ele>
        <time>2015-05-23T12:15:49Z</time>
      </trkpt>
      <trkpt lat="46.30029" lon="6.64473">
        <ele>1883.069336</ele>
        <time>2015-05-23T12:16:27Z</time>
      </trkpt>
      <trkpt lat="46.30031" lon="6.64469">
        <ele>1882.116294</ele>
        <time>2015-05-23T12:20:03Z</time>
      </trkpt>
      <trkpt lat="46.30032" lon="6.64471">
        <ele>1882.302287</ele>
        <time>2015-05-23T12:20:27Z</time>
      </trkpt>
      <trkpt lat="46.30033" lon="6.64476">
        <ele>1883.413716</ele>
        <time>2015-05-23T12:21:44Z</time>
      </trkpt>
      <trkpt lat="46.30034" lon="6.64475">
        <ele>1884.657134</ele>
        <time>2015-05-23T12:23:15Z</time>
      </trkpt>
      <trkpt lat="46.30034" lon="6.64473">
        <ele>1882.459074</ele>
        <time>2015-05-23T12:24:48Z</time>
      </trkpt>
      <trkpt lat="46.30034" lon="6.64476">
        <ele>1882.767975</ele>
        <time>2015-05-23T12:26:58Z</time>
      </trkpt>
      <trkpt lat="46.30032" lon="6.64475">
        <ele>1882.398336</ele>
        <time>2015-05-23T12:27:29Z</time>
      </trkpt>
      <trkpt lat="46.30034" lon="6.64473">
        <ele>1882.989732</ele>
        <time>2015-05-23T12:27:41Z</time>
      </trkpt>
      <trkpt lat="46.30033" lon="6.64468">
        <ele>1882.396945</ele>
        <time>2015-05-23T12:27:45Z</time>
      </trkpt>
      <trkpt lat="46.30036" lon="6.64469">
        <ele>1882.045463</ele>
        <time>2015-05-23T12:27:49Z</time>
      </trkpt>
      <trkpt lat="46.30034" lon="6.64473">
        <ele>1881.097208</ele>
        <time>2015-05-23T12:27:53Z</time>
      </trkpt>
      <trkpt lat="46.30027" lon="6.64476">
        <ele>1874.32106</ele>
        <time>2015-05-23T12:28:10Z</time>
      </trkpt>
      <trkpt lat="46.30025" lon="6.6447">
        <ele>1874.159305</ele>
        <time>2015-05-23T12:28:27Z</time>
      </trkpt>
      <trkpt lat="46.30021" lon="6.64468">
        <ele>1872.247798</ele>
        <time>2015-05-23T12:28:35Z</time>
      </trkpt>
      <trkpt lat="46.30019" lon="6.64473">
        <ele>1872.03125</ele>
        <time>2015-05-23T12:28:44Z</time>
      </trkpt>
      <trkpt lat="46.30019" lon="6.64469">
        <ele>1869.892822</ele>
        <time>2015-05-23T12:31:43Z</time>
      </trkpt>
      <trkpt lat="46.30017" lon="6.64466">
        <ele>1868.412109</ele>
        <time>2015-05-23T12:35:48Z</time>
      </trkpt>
      <trkpt lat="46.3002" lon="6.64469">
        <ele>1868.501465</ele>
        <time>2015-05-23T12:39:24Z</time>
      </trkpt>
      <trkpt lat="46.3002" lon="6.64464">
        <ele>1871.902544</ele>
        <time>2015-05-23T12:43:15Z</time>
      </trkpt>
      <trkpt lat="46.30021" lon="6.64466">
        <ele>1870.485623</ele>
        <time>2015-05-23T12:43:26Z</time>
      </trkpt>
      <trkpt lat="46.30017" lon="6.64468">
        <ele>1869.527675</ele>
        <time>2015-05-23T12:43:30Z</time>
      </trkpt>
      <trkpt lat="46.30018" lon="6.64472">
        <ele>1868.077906</ele>
        <time>2015-05-23T12:43:38Z</time>
      </trkpt>
      <trkpt lat="46.30016" lon="6.64472">
        <ele>1866.28874</ele>
        <time>2015-05-23T12:43:46Z</time>
      </trkpt>
      <trkpt lat="46.30014" lon="6.64468">
        <ele>1868.120605</ele>
        <time>2015-05-23T12:46:53Z</time>
      </trkpt>
      <trkpt lat="46.30012" lon="6.64474">
        <ele>1864.297363</ele>
        <time>2015-05-23T12:49:25Z</time>
      </trkpt>
      <trkpt lat="46.30007" lon="6.64472">
        <ele>1855.906396</ele>
        <time>2015-05-23T12:50:01Z</time>
      </trkpt>
      <trkpt lat="46.30008" lon="6.64475">
        <ele>1854.756102</ele>
        <time>2015-05-23T12:50:05Z</time>
      </trkpt>
      <trkpt lat="46.30004" lon="6.64473">
        <ele>1852.522222</ele>
        <time>2015-05-23T12:50:53Z</time>
      </trkpt>
      <trkpt lat="46.29995" lon="6.64483">
        <ele>1848.721436</ele>
        <time>2015-05-23T12:53:36Z</time>
      </trkpt>
      <trkpt lat="46.29985" lon="6.6447">
        <ele>1845.82373</ele>
        <time>2015-05-23T12:54:06Z</time>
      </trkpt>
      <trkpt lat="46.29982" lon="6.64473">
        <ele>1843.664062</ele>
        <time>2015-05-23T12:54:48Z</time>
      </trkpt>
      <trkpt lat="46.29977" lon="6.64467">
        <ele>1838.527344</ele>
        <time>2015-05-23T12:55:23Z</time>
      </trkpt>
      <trkpt lat="46.29976" lon="6.6447">
        <ele>1835.509521</ele>
        <time>2015-05-23T12:56:32Z</time>
      </trkpt>
      <trkpt lat="46.29955" lon="6.64464">
        <ele>1828.217285</ele>
        <time>2015-05-23T12:57:35Z</time>
      </trkpt>
      <trkpt lat="46.29951" lon="6.64461">
        <ele>1826.879883</ele>
        <time>2015-05-23T12:57:39Z</time>
      </trkpt>
      <trkpt lat="46.29935" lon="6.64465">
        <ele>1820.022705</ele>
        <time>2015-05-23T12:57:55Z</time>
      </trkpt>
      <trkpt lat="46.29933" lon="6.64463">
        <ele>1819.493164</ele>
        <time>2015-05-23T12:57:59Z</time>
      </trkpt>
      <trkpt lat="46.29929" lon="6.64465">
        <ele>1816.541992</ele>
        <time>2015-05-23T12:58:03Z</time>
      </trkpt>
      <trkpt lat="46.29928" lon="6.64471">
        <ele>1816.126221</ele>
        <time>2015-05-23T12:58:07Z</time>
      </trkpt>
      <trkpt lat="46.29923" lon="6.64474">
        <ele>1813.578369</ele>
        <time>2015-05-23T12:58:11Z</time>
      </trkpt>
      <trkpt lat="46.29922" lon="6.64481">
        <ele>1812.131104</ele>
        <time>2015-05-23T12:58:15Z</time>
      </trkpt>
      <trkpt lat="46.29906" lon="6.64479">
        <ele>1804.007324</ele>
        <time>2015-05-23T12:58:31Z</time>
      </trkpt>
      <trkpt lat="46.29879" lon="6.64481">
        <ele>1783.889494</ele>
        <time>2015-05-23T12:58:47Z</time>
      </trkpt>
      <trkpt lat="46.29863" lon="6.64475">
        <ele>1778.201172</ele>
        <time>2015-05-23T12:59:06Z</time>
      </trkpt>
      <trkpt lat="46.29857" lon="6.64479">
        <ele>1776.351003</ele>
        <time>2015-05-23T12:59:41Z</time>
      </trkpt>
      <trkpt lat="46.29852" lon="6.64477">
        <ele>1775.900598</ele>
        <time>2015-05-23T12:59:45Z</time>
      </trkpt>
      <trkpt lat="46.29849" lon="6.6447">
        <ele>1774.542204</ele>
        <time>2015-05-23T12:59:49Z</time>
      </trkpt>
      <trkpt lat="46.29844" lon="6.64472">
        <ele>1773.26216</ele>
        <time>2015-05-23T12:59:53Z</time>
      </trkpt>
      <trkpt lat="46.29839" lon="6.64471">
        <ele>1772.403138</ele>
        <time>2015-05-23T12:59:57Z</time>
      </trkpt>
      <trkpt lat="46.29832" lon="6.64464">
        <ele>1769.966047</ele>
        <time>2015-05-23T13:00:05Z</time>
      </trkpt>
      <trkpt lat="46.29827" lon="6.64464">
        <ele>1768.444207</ele>
        <time>2015-05-23T13:00:09Z</time>
      </trkpt>
      <trkpt lat="46.29825" lon="6.6446">
        <ele>1767.241406</ele>
        <time>2015-05-23T13:00:14Z</time>
      </trkpt>
      <trkpt lat="46.29823" lon="6.64462">
        <ele>1765.144809</ele>
        <time>2015-05-23T13:00:18Z</time>
      </trkpt>
      <trkpt lat="46.29822" lon="6.64458">
        <ele>1764.168974</ele>
        <time>2015-05-23T13:00:22Z</time>
      </trkpt>
      <trkpt lat="46.29813" lon="6.64447">
        <ele>1761.809612</ele>
        <time>2015-05-23T13:00:30Z</time>
      </trkpt>
      <trkpt lat="46.29793" lon="6.64432">
        <ele>1754.217773</ele>
        <time>2015-05-23T13:00:48Z</time>
      </trkpt>
      <trkpt lat="46.2979" lon="6.6444">
        <ele>1753.087402</ele>
        <time>2015-05-23T13:00:52Z</time>
      </trkpt>
      <trkpt lat="46.29787" lon="6.64475">
        <ele>1748.592773</ele>
        <time>2015-05-23T13:01:08Z</time>
      </trkpt>
      <trkpt lat="46.29788" lon="6.64492">
        <ele>1749.2854</ele>
        <time>2015-05-23T13:01:16Z</time>
      </trkpt>
      <trkpt lat="46.29787" lon="6.64498">
        <ele>1748.037598</ele>
        <time>2015-05-23T13:01:20Z</time>
      </trkpt>
      <trkpt lat="46.2977" lon="6.64495">
        <ele>1742.465332</ele>
        <time>2015-05-23T13:01:32Z</time>
      </trkpt>
      <trkpt lat="46.29761" lon="6.64492">
        <ele>1740.246094</ele>
        <time>2015-05-23T13:01:40Z</time>
      </trkpt>
      <trkpt lat="46.29764" lon="6.64518">
        <ele>1730.380127</ele>
        <time>2015-05-23T13:02:12Z</time>
      </trkpt>
      <trkpt lat="46.29766" lon="6.64526">
        <ele>1728.299316</ele>
        <time>2015-05-23T13:02:16Z</time>
      </trkpt>
      <trkpt lat="46.29766" lon="6.64535">
        <ele>1727.62793</ele>
        <time>2015-05-23T13:02:20Z</time>
      </trkpt>
      <trkpt lat="46.29777" lon="6.64568">
        <ele>1721.576904</ele>
        <time>2015-05-23T13:02:36Z</time>
      </trkpt>
      <trkpt lat="46.29782" lon="6.64575">
        <ele>1721.861328</ele>
        <time>2015-05-23T13:02:40Z</time>
      </trkpt>
      <trkpt lat="46.29783" lon="6.64579">
        <ele>1721.282227</ele>
        <time>2015-05-23T13:02:42Z</time>
      </trkpt>
      <trkpt lat="46.29781" lon="6.64582">
        <ele>1719.604736</ele>
        <time>2015-05-23T13:02:44Z</time>
      </trkpt>
      <trkpt lat="46.29746" lon="6.64579">
        <ele>1709.783203</ele>
        <time>2015-05-23T13:03:04Z</time>
      </trkpt>
      <trkpt lat="46.29738" lon="6.64574">
        <ele>1704.630859</ele>
        <time>2015-05-23T13:03:12Z</time>
      </trkpt>
      <trkpt lat="46.29733" lon="6.6458">
        <ele>1705.500977</ele>
        <time>2015-05-23T13:03:16Z</time>
      </trkpt>
      <trkpt lat="46.29724" lon="6.64575">
        <ele>1702.411133</ele>
        <time>2015-05-23T13:03:24Z</time>
      </trkpt>
      <trkpt lat="46.29718" lon="6.64575">
        <ele>1700.534912</ele>
        <time>2015-05-23T13:03:32Z</time>
      </trkpt>
      <trkpt lat="46.29693" lon="6.64548">
        <ele>1692.263184</ele>
        <time>2015-05-23T13:04:04Z</time>
      </trkpt>
      <trkpt lat="46.29677" lon="6.64537">
        <ele>1689.072754</ele>
        <time>2015-05-23T13:04:10Z</time>
      </trkpt>
      <trkpt lat="46.29672" lon="6.64527">
        <ele>1682.426758</ele>
        <time>2015-05-23T13:04:14Z</time>
      </trkpt>
      <trkpt lat="46.29676" lon="6.64549">
        <ele>1672.013916</ele>
        <time>2015-05-23T13:04:28Z</time>
      </trkpt>
      <trkpt lat="46.29682" lon="6.64589">
        <ele>1674.762207</ele>
        <time>2015-05-23T13:04:44Z</time>
      </trkpt>
      <trkpt lat="46.29688" lon="6.64607">
        <ele>1675.591309</ele>
        <time>2015-05-23T13:04:52Z</time>
      </trkpt>
      <trkpt lat="46.29696" lon="6.64622">
        <ele>1676.216064</ele>
        <time>2015-05-23T13:05:00Z</time>
      </trkpt>
      <trkpt lat="46.297" lon="6.64645">
        <ele>1671.060059</ele>
        <time>2015-05-23T13:05:08Z</time>
      </trkpt>
      <trkpt lat="46.29705" lon="6.64658">
        <ele>1668.204346</ele>
        <time>2015-05-23T13:05:12Z</time>
      </trkpt>
      <trkpt lat="46.29715" lon="6.64673">
        <ele>1664.182373</ele>
        <time>2015-05-23T13:05:20Z</time>
      </trkpt>
      <trkpt lat="46.29723" lon="6.647">
        <ele>1661.291992</ele>
        <time>2015-05-23T13:05:32Z</time>
      </trkpt>
      <trkpt lat="46.29722" lon="6.64709">
        <ele>1658.737793</ele>
        <time>2015-05-23T13:05:40Z</time>
      </trkpt>
      <trkpt lat="46.29726" lon="6.64721">
        <ele>1658.486816</ele>
        <time>2015-05-23T13:05:48Z</time>
      </trkpt>
      <trkpt lat="46.29722" lon="6.64728">
        <ele>1650.322754</ele>
        <time>2015-05-23T13:05:58Z</time>
      </trkpt>
      <trkpt lat="46.29725" lon="6.64726">
        <ele>1648.708252</ele>
        <time>2015-05-23T13:06:14Z</time>
      </trkpt>
      <trkpt lat="46.29726" lon="6.64737">
        <ele>1645.672363</ele>
        <time>2015-05-23T13:06:53Z</time>
      </trkpt>
      <trkpt lat="46.29729" lon="6.6474">
        <ele>1648.856308</ele>
        <time>2015-05-23T13:06:57Z</time>
      </trkpt>
      <trkpt lat="46.29742" lon="6.64739">
        <ele>1645.337752</ele>
        <time>2015-05-23T13:07:18Z</time>
      </trkpt>
      <trkpt lat="46.29742" lon="6.64741">
        <ele>1645.733886</ele>
        <time>2015-05-23T13:07:20Z</time>
      </trkpt>
      <trkpt lat="46.29741" lon="6.6474">
        <ele>1646.955447</ele>
        <time>2015-05-23T13:07:22Z</time>
      </trkpt>
      <trkpt lat="46.29743" lon="6.64738">
        <ele>1643.383301</ele>
        <time>2015-05-23T13:07:51Z</time>
      </trkpt>
      <trkpt lat="46.29734" lon="6.64735">
        <ele>1645.040784</ele>
        <time>2015-05-23T13:08:14Z</time>
      </trkpt>
      <trkpt lat="46.2973" lon="6.6473">
        <ele>1642.295314</ele>
        <time>2015-05-23T13:08:29Z</time>
      </trkpt>
      <trkpt lat="46.29734" lon="6.64735">
        <ele>1644.736389</ele>
        <time>2015-05-23T13:08:37Z</time>
      </trkpt>
      <trkpt lat="46.29742" lon="6.64739">
        <ele>1639.8449</ele>
        <time>2015-05-23T13:08:51Z</time>
      </trkpt>
      <trkpt lat="46.2974" lon="6.6474">
        <ele>1638.875027</ele>
        <time>2015-05-23T13:09:28Z</time>
      </trkpt>
      <trkpt lat="46.29737" lon="6.64738">
        <ele>1639.539836</ele>
        <time>2015-05-23T13:09:39Z</time>
      </trkpt>
      <trkpt lat="46.29737" lon="6.64741">
        <ele>1639.987038</ele>
        <time>2015-05-23T13:10:04Z</time>
      </trkpt>
      <trkpt lat="46.29742" lon="6.64733">
        <ele>1639.739378</ele>
        <time>2015-05-23T13:10:17Z</time>
      </trkpt>
      <trkpt lat="46.29745" lon="6.64736">
        <ele>1638.49452</ele>
        <time>2015-05-23T13:10:53Z</time>
      </trkpt>
      <trkpt lat="46.29741" lon="6.64739">
        <ele>1639.695046</ele>
        <time>2015-05-23T13:10:57Z</time>
      </trkpt>
      <trkpt lat="46.29733" lon="6.6474">
        <ele>1644.516903</ele>
        <time>2015-05-23T13:11:22Z</time>
      </trkpt>
      <trkpt lat="46.29731" lon="6.64737">
        <ele>1645.85736</ele>
        <time>2015-05-23T13:11:34Z</time>
      </trkpt>
      <trkpt lat="46.29724" lon="6.64734">
        <ele>1643.242326</ele>
        <time>2015-05-23T13:12:12Z</time>
      </trkpt>
      <trkpt lat="46.29722" lon="6.64727">
        <ele>1642.520636</ele>
        <time>2015-05-23T13:12:28Z</time>
      </trkpt>
      <trkpt lat="46.29723" lon="6.64732">
        <ele>1643.817271</ele>
        <time>2015-05-23T13:12:46Z</time>
      </trkpt>
      <trkpt lat="46.29723" lon="6.64728">
        <ele>1642.783499</ele>
        <time>2015-05-23T13:12:52Z</time>
      </trkpt>
      <trkpt lat="46.29733" lon="6.64736">
        <ele>1642.804557</ele>
        <time>2015-05-23T13:13:00Z</time>
      </trkpt>
      <trkpt lat="46.29746" lon="6.6474">
        <ele>1641.641668</ele>
        <time>2015-05-23T13:13:12Z</time>
      </trkpt>
      <trkpt lat="46.29751" lon="6.64746">
        <ele>1644.341175</ele>
        <time>2015-05-23T13:13:16Z</time>
      </trkpt>
      <trkpt lat="46.29741" lon="6.64756">
        <ele>1641.569028</ele>
        <time>2015-05-23T13:13:45Z</time>
      </trkpt>
      <trkpt lat="46.29737" lon="6.64755">
        <ele>1641.989647</ele>
        <time>2015-05-23T13:13:49Z</time>
      </trkpt>
      <trkpt lat="46.29724" lon="6.64773">
        <ele>1638.71732</ele>
        <time>2015-05-23T13:14:14Z</time>
      </trkpt>
      <trkpt lat="46.29721" lon="6.64779">
        <ele>1637.514836</ele>
        <time>2015-05-23T13:14:22Z</time>
      </trkpt>
      <trkpt lat="46.29723" lon="6.64783">
        <ele>1635.316091</ele>
        <time>2015-05-23T13:14:30Z</time>
      </trkpt>
      <trkpt lat="46.29703" lon="6.64844">
        <ele>1628.923504</ele>
        <time>2015-05-23T13:15:41Z</time>
      </trkpt>
      <trkpt lat="46.29695" lon="6.64854">
        <ele>1627.441109</ele>
        <time>2015-05-23T13:15:49Z</time>
      </trkpt>
      <trkpt lat="46.29691" lon="6.64865">
        <ele>1626.55644</ele>
        <time>2015-05-23T13:15:57Z</time>
      </trkpt>
      <trkpt lat="46.29691" lon="6.64869">
        <ele>1626.428559</ele>
        <time>2015-05-23T13:16:01Z</time>
      </trkpt>
      <trkpt lat="46.29687" lon="6.6488">
        <ele>1625.941642</ele>
        <time>2015-05-23T13:16:05Z</time>
      </trkpt>
      <trkpt lat="46.29682" lon="6.64887">
        <ele>1626.321871</ele>
        <time>2015-05-23T13:16:09Z</time>
      </trkpt>
      <trkpt lat="46.29678" lon="6.6489">
        <ele>1626.114683</ele>
        <time>2015-05-23T13:16:13Z</time>
      </trkpt>
      <trkpt lat="46.29672" lon="6.64899">
        <ele>1626.092155</ele>
        <time>2015-05-23T13:16:21Z</time>
      </trkpt>
      <trkpt lat="46.29663" lon="6.64909">
        <ele>1625.761301</ele>
        <time>2015-05-23T13:16:29Z</time>
      </trkpt>
      <trkpt lat="46.29644" lon="6.64915">
        <ele>1626.331935</ele>
        <time>2015-05-23T13:17:07Z</time>
      </trkpt>
      <trkpt lat="46.29635" lon="6.64911">
        <ele>1624.962743</ele>
        <time>2015-05-23T13:17:15Z</time>
      </trkpt>
      <trkpt lat="46.29625" lon="6.64912">
        <ele>1623.921267</ele>
        <time>2015-05-23T13:17:23Z</time>
      </trkpt>
      <trkpt lat="46.29612" lon="6.64901">
        <ele>1618.087402</ele>
        <time>2015-05-23T13:17:43Z</time>
      </trkpt>
      <trkpt lat="46.29604" lon="6.64889">
        <ele>1611.53418</ele>
        <time>2015-05-23T13:18:00Z</time>
      </trkpt>
      <trkpt lat="46.29604" lon="6.64886">
        <ele>1613.305664</ele>
        <time>2015-05-23T13:18:04Z</time>
      </trkpt>
      <trkpt lat="46.29603" lon="6.64889">
        <ele>1622.013362</ele>
        <time>2015-05-23T13:18:15Z</time>
      </trkpt>
      <trkpt lat="46.29605" lon="6.64889">
        <ele>1622.030817</ele>
        <time>2015-05-23T13:18:20Z</time>
      </trkpt>
      <trkpt lat="46.29604" lon="6.64885">
        <ele>1620.833598</ele>
        <time>2015-05-23T13:18:27Z</time>
      </trkpt>
      <trkpt lat="46.29598" lon="6.64878">
        <ele>1618.250984</ele>
        <time>2015-05-23T13:18:35Z</time>
      </trkpt>
      <trkpt lat="46.29584" lon="6.64869">
        <ele>1616.297947</ele>
        <time>2015-05-23T13:18:43Z</time>
      </trkpt>
      <trkpt lat="46.29582" lon="6.64862">
        <ele>1614.880915</ele>
        <time>2015-05-23T13:18:47Z</time>
      </trkpt>
      <trkpt lat="46.2957" lon="6.64845">
        <ele>1610.108715</ele>
        <time>2015-05-23T13:18:59Z</time>
      </trkpt>
      <trkpt lat="46.29567" lon="6.64831">
        <ele>1607.248759</ele>
        <time>2015-05-23T13:19:07Z</time>
      </trkpt>
      <trkpt lat="46.29563" lon="6.64826">
        <ele>1605.823335</ele>
        <time>2015-05-23T13:19:16Z</time>
      </trkpt>
      <trkpt lat="46.29562" lon="6.64827">
        <ele>1605.032402</ele>
        <time>2015-05-23T13:19:24Z</time>
      </trkpt>
      <trkpt lat="46.29531" lon="6.64802">
        <ele>1597.709292</ele>
        <time>2015-05-23T13:19:48Z</time>
      </trkpt>
      <trkpt lat="46.29527" lon="6.6479">
        <ele>1595.686811</ele>
        <time>2015-05-23T13:20:02Z</time>
      </trkpt>
      <trkpt lat="46.29524" lon="6.64786">
        <ele>1594.066622</ele>
        <time>2015-05-23T13:20:08Z</time>
      </trkpt>
      <trkpt lat="46.2952" lon="6.64787">
        <ele>1594.931705</ele>
        <time>2015-05-23T13:20:29Z</time>
      </trkpt>
      <trkpt lat="46.29516" lon="6.64776">
        <ele>1593.54957</ele>
        <time>2015-05-23T13:20:33Z</time>
      </trkpt>
      <trkpt lat="46.29486" lon="6.64738">
        <ele>1583.193635</ele>
        <time>2015-05-23T13:20:57Z</time>
      </trkpt>
      <trkpt lat="46.29483" lon="6.64737">
        <ele>1582.24188</ele>
        <time>2015-05-23T13:20:59Z</time>
      </trkpt>
      <trkpt lat="46.29479" lon="6.64727">
        <ele>1579.851027</ele>
        <time>2015-05-23T13:21:03Z</time>
      </trkpt>
      <trkpt lat="46.29456" lon="6.64692">
        <ele>1573.560091</ele>
        <time>2015-05-23T13:21:15Z</time>
      </trkpt>
      <trkpt lat="46.29447" lon="6.64684">
        <ele>1570.769792</ele>
        <time>2015-05-23T13:21:19Z</time>
      </trkpt>
      <trkpt lat="46.29414" lon="6.64629">
        <ele>1559.662795</ele>
        <time>2015-05-23T13:21:37Z</time>
      </trkpt>
      <trkpt lat="46.29398" lon="6.64614">
        <ele>1554.812417</ele>
        <time>2015-05-23T13:21:45Z</time>
      </trkpt>
      <trkpt lat="46.29391" lon="6.64597">
        <ele>1551.657729</ele>
        <time>2015-05-23T13:21:53Z</time>
      </trkpt>
      <trkpt lat="46.29391" lon="6.64592">
        <ele>1550.394475</ele>
        <time>2015-05-23T13:21:55Z</time>
      </trkpt>
      <trkpt lat="46.29386" lon="6.64585">
        <ele>1549.137814</ele>
        <time>2015-05-23T13:21:59Z</time>
      </trkpt>
      <trkpt lat="46.29385" lon="6.64578">
        <ele>1548.136654</ele>
        <time>2015-05-23T13:22:03Z</time>
      </trkpt>
      <trkpt lat="46.29369" lon="6.64553">
        <ele>1540.581826</ele>
        <time>2015-05-23T13:22:21Z</time>
      </trkpt>
      <trkpt lat="46.29369" lon="6.64547">
        <ele>1539.478425</ele>
        <time>2015-05-23T13:22:25Z</time>
      </trkpt>
      <trkpt lat="46.29361" lon="6.64544">
        <ele>1537.294764</ele>
        <time>2015-05-23T13:22:29Z</time>
      </trkpt>
      <trkpt lat="46.29358" lon="6.64536">
        <ele>1536.532201</ele>
        <time>2015-05-23T13:22:33Z</time>
      </trkpt>
      <trkpt lat="46.29346" lon="6.64533">
        <ele>1533.414681</ele>
        <time>2015-05-23T13:22:41Z</time>
      </trkpt>
      <trkpt lat="46.29312" lon="6.64512">
        <ele>1525.233979</ele>
        <time>2015-05-23T13:23:05Z</time>
      </trkpt>
      <trkpt lat="46.29291" lon="6.64495">
        <ele>1518.703388</ele>
        <time>2015-05-23T13:23:21Z</time>
      </trkpt>
      <trkpt lat="46.29277" lon="6.64487">
        <ele>1514.764777</ele>
        <time>2015-05-23T13:23:31Z</time>
      </trkpt>
      <trkpt lat="46.29275" lon="6.64481">
        <ele>1513.238761</ele>
        <time>2015-05-23T13:23:35Z</time>
      </trkpt>
      <trkpt lat="46.29259" lon="6.64473">
        <ele>1509.0755</ele>
        <time>2015-05-23T13:23:47Z</time>
      </trkpt>
      <trkpt lat="46.29245" lon="6.64474">
        <ele>1507.270827</ele>
        <time>2015-05-23T13:23:55Z</time>
      </trkpt>
      <trkpt lat="46.2922" lon="6.64468">
        <ele>1503.820384</ele>
        <time>2015-05-23T13:24:11Z</time>
      </trkpt>
      <trkpt lat="46.29205" lon="6.64459">
        <ele>1500.728117</ele>
        <time>2015-05-23T13:24:23Z</time>
      </trkpt>
      <trkpt lat="46.29198" lon="6.64459">
        <ele>1499.714249</ele>
        <time>2015-05-23T13:24:27Z</time>
      </trkpt>
      <trkpt lat="46.29181" lon="6.64471">
        <ele>1497.180596</ele>
        <time>2015-05-23T13:25:10Z</time>
      </trkpt>
      <trkpt lat="46.2918" lon="6.64476">
        <ele>1496.668295</ele>
        <time>2015-05-23T13:25:14Z</time>
      </trkpt>
      <trkpt lat="46.29172" lon="6.64487">
        <ele>1494.763643</ele>
        <time>2015-05-23T13:25:22Z</time>
      </trkpt>
      <trkpt lat="46.2917" lon="6.64502">
        <ele>1492.454109</ele>
        <time>2015-05-23T13:25:30Z</time>
      </trkpt>
      <trkpt lat="46.2917" lon="6.64527">
        <ele>1489.475652</ele>
        <time>2015-05-23T13:25:38Z</time>
      </trkpt>
      <trkpt lat="46.29164" lon="6.64574">
        <ele>1482.081632</ele>
        <time>2015-05-23T13:25:58Z</time>
      </trkpt>
      <trkpt lat="46.29166" lon="6.64582">
        <ele>1480.499029</ele>
        <time>2015-05-23T13:26:02Z</time>
      </trkpt>
      <trkpt lat="46.29165" lon="6.64587">
        <ele>1479.77104</ele>
        <time>2015-05-23T13:26:04Z</time>
      </trkpt>
      <trkpt lat="46.29154" lon="6.64596">
        <ele>1477.495968</ele>
        <time>2015-05-23T13:26:10Z</time>
      </trkpt>
      <trkpt lat="46.29137" lon="6.64595">
        <ele>1474.638538</ele>
        <time>2015-05-23T13:26:18Z</time>
      </trkpt>
      <trkpt lat="46.29113" lon="6.64606">
        <ele>1468.995188</ele>
        <time>2015-05-23T13:26:34Z</time>
      </trkpt>
      <trkpt lat="46.29098" lon="6.64619">
        <ele>1464.918351</ele>
        <time>2015-05-23T13:26:46Z</time>
      </trkpt>
      <trkpt lat="46.29094" lon="6.64628">
        <ele>1463.586131</ele>
        <time>2015-05-23T13:26:50Z</time>
      </trkpt>
      <trkpt lat="46.29073" lon="6.64647">
        <ele>1457.38186</ele>
        <time>2015-05-23T13:27:06Z</time>
      </trkpt>
      <trkpt lat="46.29068" lon="6.64649">
        <ele>1455.964686</ele>
        <time>2015-05-23T13:27:10Z</time>
      </trkpt>
      <trkpt lat="46.29037" lon="6.64653">
        <ele>1462.11499</ele>
        <time>2015-05-23T13:27:30Z</time>
      </trkpt>
      <trkpt lat="46.29032" lon="6.64657">
        <ele>1447.924099</ele>
        <time>2015-05-23T13:27:34Z</time>
      </trkpt>
      <trkpt lat="46.29025" lon="6.64671">
        <ele>1445.040384</ele>
        <time>2015-05-23T13:27:42Z</time>
      </trkpt>
      <trkpt lat="46.29016" lon="6.64683">
        <ele>1440.881787</ele>
        <time>2015-05-23T13:27:54Z</time>
      </trkpt>
      <trkpt lat="46.29008" lon="6.6469">
        <ele>1438.884711</ele>
        <time>2015-05-23T13:28:02Z</time>
      </trkpt>
      <trkpt lat="46.28998" lon="6.64695">
        <ele>1436.691884</ele>
        <time>2015-05-23T13:28:10Z</time>
      </trkpt>
      <trkpt lat="46.28983" lon="6.64689">
        <ele>1432.830055</ele>
        <time>2015-05-23T13:28:26Z</time>
      </trkpt>
      <trkpt lat="46.28973" lon="6.64695">
        <ele>1430.853801</ele>
        <time>2015-05-23T13:28:34Z</time>
      </trkpt>
      <trkpt lat="46.28965" lon="6.64705">
        <ele>1428.527608</ele>
        <time>2015-05-23T13:28:42Z</time>
      </trkpt>
      <trkpt lat="46.28955" lon="6.64723">
        <ele>1427.128052</ele>
        <time>2015-05-23T13:28:58Z</time>
      </trkpt>
      <trkpt lat="46.28946" lon="6.6473">
        <ele>1427.214844</ele>
        <time>2015-05-23T13:29:06Z</time>
      </trkpt>
      <trkpt lat="46.28938" lon="6.64745">
        <ele>1425.609741</ele>
        <time>2015-05-23T13:29:14Z</time>
      </trkpt>
      <trkpt lat="46.28936" lon="6.64758">
        <ele>1419.477295</ele>
        <time>2015-05-23T13:29:22Z</time>
      </trkpt>
      <trkpt lat="46.28938" lon="6.64765">
        <ele>1415.679565</ele>
        <time>2015-05-23T13:29:26Z</time>
      </trkpt>
      <trkpt lat="46.28935" lon="6.64774">
        <ele>1417.107666</ele>
        <time>2015-05-23T13:29:30Z</time>
      </trkpt>
      <trkpt lat="46.28931" lon="6.64776">
        <ele>1418.466553</ele>
        <time>2015-05-23T13:29:32Z</time>
      </trkpt>
      <trkpt lat="46.28928" lon="6.64776">
        <ele>1417.198975</ele>
        <time>2015-05-23T13:29:34Z</time>
      </trkpt>
      <trkpt lat="46.28924" lon="6.64769">
        <ele>1416.464966</ele>
        <time>2015-05-23T13:29:38Z</time>
      </trkpt>
      <trkpt lat="46.28909" lon="6.64706">
        <ele>1398.475586</ele>
        <time>2015-05-23T13:30:10Z</time>
      </trkpt>
      <trkpt lat="46.28905" lon="6.64696">
        <ele>1405.294259</ele>
        <time>2015-05-23T13:30:18Z</time>
      </trkpt>
      <trkpt lat="46.28895" lon="6.64691">
        <ele>1403.04716</ele>
        <time>2015-05-23T13:30:26Z</time>
      </trkpt>
      <trkpt lat="46.28884" lon="6.64689">
        <ele>1401.234357</ele>
        <time>2015-05-23T13:30:34Z</time>
      </trkpt>
      <trkpt lat="46.28873" lon="6.64684">
        <ele>1400.527832</ele>
        <time>2015-05-23T13:30:42Z</time>
      </trkpt>
      <trkpt lat="46.2887" lon="6.6468">
        <ele>1397.726074</ele>
        <time>2015-05-23T13:30:46Z</time>
      </trkpt>
      <trkpt lat="46.28848" lon="6.64668">
        <ele>1399.161865</ele>
        <time>2015-05-23T13:31:02Z</time>
      </trkpt>
      <trkpt lat="46.28814" lon="6.6466">
        <ele>1401.865845</ele>
        <time>2015-05-23T13:31:26Z</time>
      </trkpt>
      <trkpt lat="46.28801" lon="6.64648">
        <ele>1392.018066</ele>
        <time>2015-05-23T13:31:38Z</time>
      </trkpt>
      <trkpt lat="46.28798" lon="6.64634">
        <ele>1387.859131</ele>
        <time>2015-05-23T13:31:46Z</time>
      </trkpt>
      <trkpt lat="46.28794" lon="6.64625">
        <ele>1382.855225</ele>
        <time>2015-05-23T13:31:54Z</time>
      </trkpt>
      <trkpt lat="46.28787" lon="6.64621">
        <ele>1385.56526</ele>
        <time>2015-05-23T13:32:02Z</time>
      </trkpt>
      <trkpt lat="46.28783" lon="6.64622">
        <ele>1385.129884</ele>
        <time>2015-05-23T13:32:06Z</time>
      </trkpt>
      <trkpt lat="46.2878" lon="6.64626">
        <ele>1384.962504</ele>
        <time>2015-05-23T13:32:10Z</time>
      </trkpt>
      <trkpt lat="46.28784" lon="6.64641">
        <ele>1382.831248</ele>
        <time>2015-05-23T13:32:22Z</time>
      </trkpt>
      <trkpt lat="46.28781" lon="6.64647">
        <ele>1381.476648</ele>
        <time>2015-05-23T13:32:30Z</time>
      </trkpt>
      <trkpt lat="46.28782" lon="6.6466">
        <ele>1380.073958</ele>
        <time>2015-05-23T13:32:38Z</time>
      </trkpt>
      <trkpt lat="46.2879" lon="6.64681">
        <ele>1377.57842</ele>
        <time>2015-05-23T13:33:02Z</time>
      </trkpt>
      <trkpt lat="46.28798" lon="6.64694">
        <ele>1375.287044</ele>
        <time>2015-05-23T13:33:52Z</time>
      </trkpt>
      <trkpt lat="46.28805" lon="6.64712">
        <ele>1372.330485</ele>
        <time>2015-05-23T13:34:00Z</time>
      </trkpt>
      <trkpt lat="46.28822" lon="6.64733">
        <ele>1368.586179</ele>
        <time>2015-05-23T13:34:16Z</time>
      </trkpt>
      <trkpt lat="46.28825" lon="6.6474">
        <ele>1368.178182</ele>
        <time>2015-05-23T13:34:20Z</time>
      </trkpt>
      <trkpt lat="46.28826" lon="6.64745">
        <ele>1367.187043</ele>
        <time>2015-05-23T13:34:22Z</time>
      </trkpt>
      <trkpt lat="46.28823" lon="6.6475">
        <ele>1366.518344</ele>
        <time>2015-05-23T13:34:24Z</time>
      </trkpt>
      <trkpt lat="46.28817" lon="6.6475">
        <ele>1365.563691</ele>
        <time>2015-05-23T13:34:28Z</time>
      </trkpt>
      <trkpt lat="46.28804" lon="6.64746">
        <ele>1362.982355</ele>
        <time>2015-05-23T13:34:36Z</time>
      </trkpt>
      <trkpt lat="46.28796" lon="6.64746">
        <ele>1361.814419</ele>
        <time>2015-05-23T13:34:40Z</time>
      </trkpt>
      <trkpt lat="46.28778" lon="6.64729">
        <ele>1357.301706</ele>
        <time>2015-05-23T13:34:56Z</time>
      </trkpt>
      <trkpt lat="46.28744" lon="6.64708">
        <ele>1350.358602</ele>
        <time>2015-05-23T13:35:20Z</time>
      </trkpt>
      <trkpt lat="46.28727" lon="6.64688">
        <ele>1350.552132</ele>
        <time>2015-05-23T13:35:36Z</time>
      </trkpt>
      <trkpt lat="46.28723" lon="6.64681">
        <ele>1350.497296</ele>
        <time>2015-05-23T13:35:40Z</time>
      </trkpt>
      <trkpt lat="46.28717" lon="6.64678">
        <ele>1348.908463</ele>
        <time>2015-05-23T13:35:44Z</time>
      </trkpt>
      <trkpt lat="46.28685" lon="6.64638">
        <ele>1342.191744</ele>
        <time>2015-05-23T13:36:16Z</time>
      </trkpt>
      <trkpt lat="46.28676" lon="6.64624">
        <ele>1338.995812</ele>
        <time>2015-05-23T13:36:28Z</time>
      </trkpt>
      <trkpt lat="46.28667" lon="6.64614">
        <ele>1337.71483</ele>
        <time>2015-05-23T13:36:36Z</time>
      </trkpt>
      <trkpt lat="46.28657" lon="6.64606">
        <ele>1335.829552</ele>
        <time>2015-05-23T13:36:44Z</time>
      </trkpt>
      <trkpt lat="46.2865" lon="6.64589">
        <ele>1333.530486</ele>
        <time>2015-05-23T13:36:52Z</time>
      </trkpt>
      <trkpt lat="46.28643" lon="6.64577">
        <ele>1331.120105</ele>
        <time>2015-05-23T13:37:04Z</time>
      </trkpt>
      <trkpt lat="46.28611" lon="6.64544">
        <ele>1320.746079</ele>
        <time>2015-05-23T13:37:36Z</time>
      </trkpt>
      <trkpt lat="46.28591" lon="6.64536">
        <ele>1314.957899</ele>
        <time>2015-05-23T13:37:56Z</time>
      </trkpt>
      <trkpt lat="46.28586" lon="6.6453">
        <ele>1313.717924</ele>
        <time>2015-05-23T13:38:00Z</time>
      </trkpt>
      <trkpt lat="46.28579" lon="6.64528">
        <ele>1312.093855</ele>
        <time>2015-05-23T13:38:06Z</time>
      </trkpt>
      <trkpt lat="46.28575" lon="6.64516">
        <ele>1309.502979</ele>
        <time>2015-05-23T13:38:14Z</time>
      </trkpt>
      <trkpt lat="46.2854" lon="6.64454">
        <ele>1302.011108</ele>
        <time>2015-05-23T13:38:58Z</time>
      </trkpt>
      <trkpt lat="46.28535" lon="6.64457">
        <ele>1301.154907</ele>
        <time>2015-05-23T13:39:02Z</time>
      </trkpt>
      <trkpt lat="46.28533" lon="6.64469">
        <ele>1299.1427</ele>
        <time>2015-05-23T13:39:10Z</time>
      </trkpt>
      <trkpt lat="46.28538" lon="6.64503">
        <ele>1295.831909</ele>
        <time>2015-05-23T13:39:26Z</time>
      </trkpt>
      <trkpt lat="46.28537" lon="6.64513">
        <ele>1293.173584</ele>
        <time>2015-05-23T13:39:34Z</time>
      </trkpt>
      <trkpt lat="46.28542" lon="6.64542">
        <ele>1285.670654</ele>
        <time>2015-05-23T13:39:50Z</time>
      </trkpt>
      <trkpt lat="46.28542" lon="6.64561">
        <ele>1282.018921</ele>
        <time>2015-05-23T13:40:06Z</time>
      </trkpt>
      <trkpt lat="46.28545" lon="6.6458">
        <ele>1282.491577</ele>
        <time>2015-05-23T13:40:14Z</time>
      </trkpt>
      <trkpt lat="46.28545" lon="6.64591">
        <ele>1276.817749</ele>
        <time>2015-05-23T13:40:22Z</time>
      </trkpt>
      <trkpt lat="46.28547" lon="6.64598">
        <ele>1274.449585</ele>
        <time>2015-05-23T13:40:26Z</time>
      </trkpt>
      <trkpt lat="46.28554" lon="6.64608">
        <ele>1270.842163</ele>
        <time>2015-05-23T13:40:34Z</time>
      </trkpt>
      <trkpt lat="46.28554" lon="6.64614">
        <ele>1270.46936</ele>
        <time>2015-05-23T13:40:38Z</time>
      </trkpt>
      <trkpt lat="46.28552" lon="6.64618">
        <ele>1270.212524</ele>
        <time>2015-05-23T13:40:42Z</time>
      </trkpt>
      <trkpt lat="46.28547" lon="6.64615">
        <ele>1269.137817</ele>
        <time>2015-05-23T13:40:46Z</time>
      </trkpt>
      <trkpt lat="46.28541" lon="6.64603">
        <ele>1267.520752</ele>
        <time>2015-05-23T13:40:54Z</time>
      </trkpt>
      <trkpt lat="46.28524" lon="6.64586">
        <ele>1265.387573</ele>
        <time>2015-05-23T13:41:10Z</time>
      </trkpt>
      <trkpt lat="46.28508" lon="6.64566">
        <ele>1259.554932</ele>
        <time>2015-05-23T13:41:26Z</time>
      </trkpt>
      <trkpt lat="46.28492" lon="6.64551">
        <ele>1258.518677</ele>
        <time>2015-05-23T13:41:42Z</time>
      </trkpt>
      <trkpt lat="46.28485" lon="6.6454">
        <ele>1258.4823</ele>
        <time>2015-05-23T13:41:50Z</time>
      </trkpt>
      <trkpt lat="46.28475" lon="6.64516">
        <ele>1260.119751</ele>
        <time>2015-05-23T13:42:06Z</time>
      </trkpt>
      <trkpt lat="46.28468" lon="6.64481">
        <ele>1255.014648</ele>
        <time>2015-05-23T13:42:30Z</time>
      </trkpt>
      <trkpt lat="46.28464" lon="6.64475">
        <ele>1256.546753</ele>
        <time>2015-05-23T13:42:38Z</time>
      </trkpt>
      <trkpt lat="46.28459" lon="6.64472">
        <ele>1268.680585</ele>
        <time>2015-05-23T13:43:13Z</time>
      </trkpt>
      <trkpt lat="46.28458" lon="6.64468">
        <ele>1268.005495</ele>
        <time>2015-05-23T13:43:17Z</time>
      </trkpt>
      <trkpt lat="46.2845" lon="6.64465">
        <ele>1262.023863</ele>
        <time>2015-05-23T13:43:25Z</time>
      </trkpt>
      <trkpt lat="46.28449" lon="6.64468">
        <ele>1257.916913</ele>
        <time>2015-05-23T13:44:19Z</time>
      </trkpt>
      <trkpt lat="46.28423" lon="6.64494">
        <ele>1246.02807</ele>
        <time>2015-05-23T13:45:45Z</time>
      </trkpt>
      <trkpt lat="46.28414" lon="6.64506">
        <ele>1243.393005</ele>
        <time>2015-05-23T13:46:01Z</time>
      </trkpt>
      <trkpt lat="46.2841" lon="6.64503">
        <ele>1243.174954</ele>
        <time>2015-05-23T13:46:05Z</time>
      </trkpt>
      <trkpt lat="46.28398" lon="6.64481">
        <ele>1243.847033</ele>
        <time>2015-05-23T13:46:21Z</time>
      </trkpt>
      <trkpt lat="46.28394" lon="6.64479">
        <ele>1243.804089</ele>
        <time>2015-05-23T13:46:25Z</time>
      </trkpt>
      <trkpt lat="46.28389" lon="6.64481">
        <ele>1244.018607</ele>
        <time>2015-05-23T13:46:29Z</time>
      </trkpt>
      <trkpt lat="46.28375" lon="6.64476">
        <ele>1242.966349</ele>
        <time>2015-05-23T13:46:41Z</time>
      </trkpt>
      <trkpt lat="46.28374" lon="6.64472">
        <ele>1244.232695</ele>
        <time>2015-05-23T13:47:16Z</time>
      </trkpt>
    </trkseg>
  </trk>
</gpx>